sensor_id;sensor_type;location;lat;lon;timestamp;P1;durP1;ratioP1;P2;durP2;ratioP2
52590;SDS011;38483;42.620;25.394;2023-02-12T00:00:18;25.47;;;15.57;;
52590;SDS011;38483;42.620;25.394;2023-02-12T00:02:47;26.17;;;15.90;;
52590;SDS011;38483;42.620;25.394;2023-02-12T00:05:14;31.67;;;18.00;;
52590;SDS011;38483;42.620;25.394;2023-02-12T00:07:41;32.50;;;17.80;;
52590;SDS011;38483;42.620;25.394;2023-02-12T00:10:09;25.63;;;16.07;;
52590;SDS011;38483;42.620;25.394;2023-02-12T00:12:38;28.90;;;16.53;;
52590;SDS011;38483;42.620;25.394;2023-02-12T00:15:05;27.70;;;16.20;;
52590;SDS011;38483;42.620;25.394;2023-02-12T00:17:32;28.47;;;15.43;;
52590;SDS011;38483;42.620;25.394;2023-02-12T00:19:59;24.63;;;15.87;;
52590;SDS011;38483;42.620;25.394;2023-02-12T00:22:29;26.87;;;15.23;;
52590;SDS011;38483;42.620;25.394;2023-02-12T00:24:56;28.53;;;15.93;;
52590;SDS011;38483;42.620;25.394;2023-02-12T00:27:23;29.37;;;14.20;;
52590;SDS011;38483;42.620;25.394;2023-02-12T00:29:50;23.97;;;13.27;;
52590;SDS011;38483;42.620;25.394;2023-02-12T00:32:17;24.03;;;12.30;;
52590;SDS011;38483;42.620;25.394;2023-02-12T00:34:47;21.83;;;11.67;;
52590;SDS011;38483;42.620;25.394;2023-02-12T00:37:14;21.73;;;11.93;;
52590;SDS011;38483;42.620;25.394;2023-02-12T00:39:42;22.67;;;12.50;;
52590;SDS011;38483;42.620;25.394;2023-02-12T00:42:09;20.57;;;12.63;;
52590;SDS011;38483;42.620;25.394;2023-02-12T00:44:37;21.43;;;12.40;;
52590;SDS011;38483;42.620;25.394;2023-02-12T00:47:04;21.77;;;12.97;;
52590;SDS011;38483;42.620;25.394;2023-02-12T00:49:31;25.37;;;13.73;;
52590;SDS011;38483;42.620;25.394;2023-02-12T00:52:00;20.77;;;14.37;;
52590;SDS011;38483;42.620;25.394;2023-02-12T00:54:29;23.70;;;15.53;;
52590;SDS011;38483;42.620;25.394;2023-02-12T00:56:56;26.00;;;15.43;;
52590;SDS011;38483;42.620;25.394;2023-02-12T00:59:28;27.60;;;15.50;;
52590;SDS011;38483;42.620;25.394;2023-02-12T01:01:56;23.77;;;14.47;;
52590;SDS011;38483;42.620;25.394;2023-02-12T01:04:23;23.57;;;13.97;;
52590;SDS011;38483;42.620;25.394;2023-02-12T01:06:50;26.10;;;14.40;;
52590;SDS011;38483;42.620;25.394;2023-02-12T01:09:17;25.53;;;14.17;;
52590;SDS011;38483;42.620;25.394;2023-02-12T01:11:46;25.33;;;14.23;;
52590;SDS011;38483;42.620;25.394;2023-02-12T01:14:14;27.17;;;15.27;;
52590;SDS011;38483;42.620;25.394;2023-02-12T01:16:41;27.90;;;14.93;;
52590;SDS011;38483;42.620;25.394;2023-02-12T01:19:09;28.53;;;15.87;;
52590;SDS011;38483;42.620;25.394;2023-02-12T01:21:38;27.47;;;15.37;;
52590;SDS011;38483;42.620;25.394;2023-02-12T01:24:05;25.93;;;14.83;;
52590;SDS011;38483;42.620;25.394;2023-02-12T01:26:32;25.80;;;15.77;;
52590;SDS011;38483;42.620;25.394;2023-02-12T01:29:00;29.90;;;15.67;;
52590;SDS011;38483;42.620;25.394;2023-02-12T01:31:32;26.27;;;15.33;;
52590;SDS011;38483;42.620;25.394;2023-02-12T01:34:03;28.17;;;15.70;;
52590;SDS011;38483;42.620;25.394;2023-02-12T01:36:32;26.53;;;15.60;;
52590;SDS011;38483;42.620;25.394;2023-02-12T01:39:00;27.93;;;15.83;;
52590;SDS011;38483;42.620;25.394;2023-02-12T01:41:30;26.13;;;14.80;;
52590;SDS011;38483;42.620;25.394;2023-02-12T01:46:45;23.87;;;14.13;;
52590;SDS011;38483;42.620;25.394;2023-02-12T01:49:16;25.73;;;14.97;;
52590;SDS011;38483;42.620;25.394;2023-02-12T01:51:47;30.23;;;16.00;;
52590;SDS011;38483;42.620;25.394;2023-02-12T01:54:19;25.40;;;15.40;;
52590;SDS011;38483;42.620;25.394;2023-02-12T01:56:51;24.73;;;15.03;;
52590;SDS011;38483;42.620;25.394;2023-02-12T01:59:18;28.27;;;16.03;;
52590;SDS011;38483;42.620;25.394;2023-02-12T02:01:46;25.73;;;15.53;;
52590;SDS011;38483;42.620;25.394;2023-02-12T02:04:18;26.07;;;15.43;;
52590;SDS011;38483;42.620;25.394;2023-02-12T02:06:52;32.03;;;17.10;;
52590;SDS011;38483;42.620;25.394;2023-02-12T02:09:29;27.43;;;16.37;;
52590;SDS011;38483;42.620;25.394;2023-02-12T02:12:00;27.73;;;16.43;;
52590;SDS011;38483;42.620;25.394;2023-02-12T02:14:46;27.63;;;16.40;;
52590;SDS011;38483;42.620;25.394;2023-02-12T02:32:13;17.87;;;11.07;;
52590;SDS011;38483;42.620;25.394;2023-02-12T02:37:35;14.77;;;8.93;;
52590;SDS011;38483;42.620;25.394;2023-02-12T02:40:10;17.43;;;9.87;;
52590;SDS011;38483;42.620;25.394;2023-02-12T02:42:46;20.03;;;11.37;;
52590;SDS011;38483;42.620;25.394;2023-02-12T02:45:26;19.77;;;10.33;;
52590;SDS011;38483;42.620;25.394;2023-02-12T02:48:02;17.57;;;10.23;;
52590;SDS011;38483;42.620;25.394;2023-02-12T02:50:35;18.67;;;11.13;;
52590;SDS011;38483;42.620;25.394;2023-02-12T02:53:10;17.47;;;9.53;;
52590;SDS011;38483;42.620;25.394;2023-02-12T02:55:46;17.57;;;9.53;;
52590;SDS011;38483;42.620;25.394;2023-02-12T02:58:26;20.47;;;12.00;;
52590;SDS011;38483;42.620;25.394;2023-02-12T03:01:05;18.80;;;10.93;;
52590;SDS011;38483;42.620;25.394;2023-02-12T03:03:38;21.17;;;11.37;;
52590;SDS011;38483;42.620;25.394;2023-02-12T03:06:15;18.17;;;9.97;;
52590;SDS011;38483;42.620;25.394;2023-02-12T03:08:56;18.93;;;10.60;;
52590;SDS011;38483;42.620;25.394;2023-02-12T03:11:27;15.80;;;9.67;;
52590;SDS011;38483;42.620;25.394;2023-02-12T03:13:59;18.03;;;11.17;;
52590;SDS011;38483;42.620;25.394;2023-02-12T03:16:57;18.10;;;10.33;;
52590;SDS011;38483;42.620;25.394;2023-02-12T03:19:55;17.80;;;10.43;;
52590;SDS011;38483;42.620;25.394;2023-02-12T03:22:35;22.30;;;11.87;;
52590;SDS011;38483;42.620;25.394;2023-02-12T03:25:13;25.20;;;12.57;;
52590;SDS011;38483;42.620;25.394;2023-02-12T03:39:27;18.27;;;10.40;;
52590;SDS011;38483;42.620;25.394;2023-02-12T03:42:09;20.07;;;11.50;;
52590;SDS011;38483;42.620;25.394;2023-02-12T03:44:53;20.10;;;12.00;;
52590;SDS011;38483;42.620;25.394;2023-02-12T03:47:30;17.23;;;10.23;;
52590;SDS011;38483;42.620;25.394;2023-02-12T03:52:47;16.23;;;10.37;;
52590;SDS011;38483;42.620;25.394;2023-02-12T03:55:16;21.47;;;11.47;;
52590;SDS011;38483;42.620;25.394;2023-02-12T03:57:44;21.77;;;11.87;;
52590;SDS011;38483;42.620;25.394;2023-02-12T04:00:16;21.40;;;11.47;;
52590;SDS011;38483;42.620;25.394;2023-02-12T04:02:46;19.50;;;11.87;;
52590;SDS011;38483;42.620;25.394;2023-02-12T04:05:20;22.17;;;12.50;;
52590;SDS011;38483;42.620;25.394;2023-02-12T04:07:50;21.73;;;13.13;;
52590;SDS011;38483;42.620;25.394;2023-02-12T04:10:20;20.80;;;12.73;;
52590;SDS011;38483;42.620;25.394;2023-02-12T04:13:15;23.43;;;11.23;;
52590;SDS011;38483;42.620;25.394;2023-02-12T04:15:52;18.17;;;10.90;;
52590;SDS011;38483;42.620;25.394;2023-02-12T04:18:38;19.60;;;11.43;;
52590;SDS011;38483;42.620;25.394;2023-02-12T04:26:50;17.97;;;11.83;;
52590;SDS011;38483;42.620;25.394;2023-02-12T04:29:30;17.40;;;11.10;;
52590;SDS011;38483;42.620;25.394;2023-02-12T04:34:58;18.07;;;10.07;;
52590;SDS011;38483;42.620;25.394;2023-02-12T04:37:43;19.20;;;12.17;;
52590;SDS011;38483;42.620;25.394;2023-02-12T04:40:16;19.73;;;11.27;;
52590;SDS011;38483;42.620;25.394;2023-02-12T04:42:49;17.57;;;11.40;;
52590;SDS011;38483;42.620;25.394;2023-02-12T04:45:23;21.27;;;12.37;;
52590;SDS011;38483;42.620;25.394;2023-02-12T04:47:52;20.57;;;10.53;;
52590;SDS011;38483;42.620;25.394;2023-02-12T04:50:19;15.93;;;9.83;;
52590;SDS011;38483;42.620;25.394;2023-02-12T04:52:46;17.80;;;9.53;;
52590;SDS011;38483;42.620;25.394;2023-02-12T04:55:13;15.97;;;7.83;;
52590;SDS011;38483;42.620;25.394;2023-02-12T04:57:41;13.20;;;8.70;;
52590;SDS011;38483;42.620;25.394;2023-02-12T05:00:08;15.03;;;8.63;;
52590;SDS011;38483;42.620;25.394;2023-02-12T05:02:38;14.87;;;9.27;;
52590;SDS011;38483;42.620;25.394;2023-02-12T05:05:05;18.00;;;9.73;;
52590;SDS011;38483;42.620;25.394;2023-02-12T05:07:33;19.63;;;9.90;;
52590;SDS011;38483;42.620;25.394;2023-02-12T05:10:00;13.70;;;8.47;;
52590;SDS011;38483;42.620;25.394;2023-02-12T05:12:28;16.83;;;10.20;;
52590;SDS011;38483;42.620;25.394;2023-02-12T05:14:56;20.40;;;11.47;;
52590;SDS011;38483;42.620;25.394;2023-02-12T05:17:23;22.83;;;10.63;;
52590;SDS011;38483;42.620;25.394;2023-02-12T05:19:50;21.03;;;12.00;;
52590;SDS011;38483;42.620;25.394;2023-02-12T05:22:17;19.90;;;9.30;;
52590;SDS011;38483;42.620;25.394;2023-02-12T05:24:44;18.53;;;10.17;;
52590;SDS011;38483;42.620;25.394;2023-02-12T05:27:12;20.90;;;10.33;;
52590;SDS011;38483;42.620;25.394;2023-02-12T05:29:39;17.57;;;9.40;;
52590;SDS011;38483;42.620;25.394;2023-02-12T05:32:06;19.00;;;10.20;;
52590;SDS011;38483;42.620;25.394;2023-02-12T05:34:34;16.37;;;9.93;;
52590;SDS011;38483;42.620;25.394;2023-02-12T05:37:01;17.23;;;9.43;;
52590;SDS011;38483;42.620;25.394;2023-02-12T05:39:28;14.63;;;9.00;;
52590;SDS011;38483;42.620;25.394;2023-02-12T05:41:55;16.07;;;9.60;;
52590;SDS011;38483;42.620;25.394;2023-02-12T05:44:22;22.40;;;9.83;;
52590;SDS011;38483;42.620;25.394;2023-02-12T05:46:48;17.63;;;10.40;;
52590;SDS011;38483;42.620;25.394;2023-02-12T05:49:15;18.10;;;9.53;;
52590;SDS011;38483;42.620;25.394;2023-02-12T05:51:42;20.90;;;10.40;;
52590;SDS011;38483;42.620;25.394;2023-02-12T05:54:09;18.27;;;10.13;;
52590;SDS011;38483;42.620;25.394;2023-02-12T05:56:41;19.23;;;10.27;;
52590;SDS011;38483;42.620;25.394;2023-02-12T05:59:17;15.70;;;10.17;;
52590;SDS011;38483;42.620;25.394;2023-02-12T06:01:47;23.47;;;11.03;;
52590;SDS011;38483;42.620;25.394;2023-02-12T06:04:20;19.50;;;11.23;;
52590;SDS011;38483;42.620;25.394;2023-02-12T06:06:49;18.00;;;10.07;;
52590;SDS011;38483;42.620;25.394;2023-02-12T06:09:21;18.53;;;10.73;;
52590;SDS011;38483;42.620;25.394;2023-02-12T06:11:49;21.53;;;11.33;;
52590;SDS011;38483;42.620;25.394;2023-02-12T06:14:17;20.33;;;10.50;;
52590;SDS011;38483;42.620;25.394;2023-02-12T06:16:49;18.87;;;10.60;;
52590;SDS011;38483;42.620;25.394;2023-02-12T06:19:17;22.17;;;12.07;;
52590;SDS011;38483;42.620;25.394;2023-02-12T06:21:45;23.57;;;13.13;;
52590;SDS011;38483;42.620;25.394;2023-02-12T06:24:13;29.07;;;13.13;;
52590;SDS011;38483;42.620;25.394;2023-02-12T06:26:40;26.87;;;14.40;;
52590;SDS011;38483;42.620;25.394;2023-02-12T06:29:08;33.57;;;17.67;;
52590;SDS011;38483;42.620;25.394;2023-02-12T06:31:35;43.50;;;21.73;;
52590;SDS011;38483;42.620;25.394;2023-02-12T06:34:04;26.97;;;13.97;;
52590;SDS011;38483;42.620;25.394;2023-02-12T06:36:35;28.13;;;14.90;;
52590;SDS011;38483;42.620;25.394;2023-02-12T06:39:07;32.00;;;16.43;;
52590;SDS011;38483;42.620;25.394;2023-02-12T06:41:34;30.33;;;14.47;;
52590;SDS011;38483;42.620;25.394;2023-02-12T06:44:01;25.63;;;15.50;;
52590;SDS011;38483;42.620;25.394;2023-02-12T06:46:29;27.27;;;16.63;;
52590;SDS011;38483;42.620;25.394;2023-02-12T06:48:57;30.87;;;16.43;;
52590;SDS011;38483;42.620;25.394;2023-02-12T06:51:25;27.43;;;16.23;;
52590;SDS011;38483;42.620;25.394;2023-02-12T06:53:54;33.40;;;18.20;;
52590;SDS011;38483;42.620;25.394;2023-02-12T06:56:22;28.40;;;16.27;;
52590;SDS011;38483;42.620;25.394;2023-02-12T06:58:54;26.07;;;16.17;;
52590;SDS011;38483;42.620;25.394;2023-02-12T07:01:25;31.03;;;15.17;;
52590;SDS011;38483;42.620;25.394;2023-02-12T07:03:59;26.97;;;15.23;;
52590;SDS011;38483;42.620;25.394;2023-02-12T07:06:29;22.83;;;14.73;;
52590;SDS011;38483;42.620;25.394;2023-02-12T07:08:57;33.50;;;18.23;;
52590;SDS011;38483;42.620;25.394;2023-02-12T07:11:29;21.53;;;14.00;;
52590;SDS011;38483;42.620;25.394;2023-02-12T07:13:58;20.03;;;12.27;;
52590;SDS011;38483;42.620;25.394;2023-02-12T07:16:25;26.10;;;12.13;;
52590;SDS011;38483;42.620;25.394;2023-02-12T07:18:53;23.17;;;11.47;;
52590;SDS011;38483;42.620;25.394;2023-02-12T07:21:22;23.00;;;11.80;;
52590;SDS011;38483;42.620;25.394;2023-02-12T07:23:50;20.03;;;11.50;;
52590;SDS011;38483;42.620;25.394;2023-02-12T07:26:23;21.23;;;13.20;;
52590;SDS011;38483;42.620;25.394;2023-02-12T07:28:53;22.57;;;12.33;;
52590;SDS011;38483;42.620;25.394;2023-02-12T07:31:24;27.30;;;13.43;;
52590;SDS011;38483;42.620;25.394;2023-02-12T07:33:52;24.10;;;13.10;;
52590;SDS011;38483;42.620;25.394;2023-02-12T07:36:21;37.20;;;14.23;;
52590;SDS011;38483;42.620;25.394;2023-02-12T07:38:49;26.03;;;14.43;;
52590;SDS011;38483;42.620;25.394;2023-02-12T07:41:21;31.90;;;16.77;;
52590;SDS011;38483;42.620;25.394;2023-02-12T07:43:53;26.10;;;15.90;;
52590;SDS011;38483;42.620;25.394;2023-02-12T07:46:23;25.87;;;13.97;;
52590;SDS011;38483;42.620;25.394;2023-02-12T07:48:59;29.50;;;14.37;;
52590;SDS011;38483;42.620;25.394;2023-02-12T07:51:27;37.37;;;18.30;;
52590;SDS011;38483;42.620;25.394;2023-02-12T07:53:54;44.50;;;19.70;;
52590;SDS011;38483;42.620;25.394;2023-02-12T07:56:25;24.67;;;15.10;;
52590;SDS011;38483;42.620;25.394;2023-02-12T07:58:58;25.90;;;14.50;;
52590;SDS011;38483;42.620;25.394;2023-02-12T08:04:03;25.07;;;13.80;;
52590;SDS011;38483;42.620;25.394;2023-02-12T08:06:32;22.00;;;13.33;;
52590;SDS011;38483;42.620;25.394;2023-02-12T08:09:02;27.63;;;12.60;;
52590;SDS011;38483;42.620;25.394;2023-02-12T08:11:30;28.37;;;14.80;;
52590;SDS011;38483;42.620;25.394;2023-02-12T08:13:57;24.20;;;13.00;;
52590;SDS011;38483;42.620;25.394;2023-02-12T08:16:25;20.50;;;11.53;;
52590;SDS011;38483;42.620;25.394;2023-02-12T08:18:54;16.80;;;10.70;;
52590;SDS011;38483;42.620;25.394;2023-02-12T08:21:33;20.90;;;10.33;;
52590;SDS011;38483;42.620;25.394;2023-02-12T08:24:00;16.63;;;9.97;;
52590;SDS011;38483;42.620;25.394;2023-02-12T08:26:28;20.57;;;11.13;;
52590;SDS011;38483;42.620;25.394;2023-02-12T08:29:01;16.37;;;9.57;;
52590;SDS011;38483;42.620;25.394;2023-02-12T08:31:40;18.40;;;9.60;;
52590;SDS011;38483;42.620;25.394;2023-02-12T08:34:22;23.93;;;9.63;;
52590;SDS011;38483;42.620;25.394;2023-02-12T08:36:51;14.10;;;7.97;;
52590;SDS011;38483;42.620;25.394;2023-02-12T08:39:22;18.37;;;8.87;;
52590;SDS011;38483;42.620;25.394;2023-02-12T08:41:54;13.37;;;8.73;;
52590;SDS011;38483;42.620;25.394;2023-02-12T08:44:23;14.23;;;8.63;;
52590;SDS011;38483;42.620;25.394;2023-02-12T08:46:50;12.97;;;7.57;;
52590;SDS011;38483;42.620;25.394;2023-02-12T08:49:19;15.20;;;8.13;;
52590;SDS011;38483;42.620;25.394;2023-02-12T08:51:49;16.37;;;9.23;;
52590;SDS011;38483;42.620;25.394;2023-02-12T08:54:19;15.10;;;9.07;;
52590;SDS011;38483;42.620;25.394;2023-02-12T08:56:48;15.87;;;8.73;;
52590;SDS011;38483;42.620;25.394;2023-02-12T08:59:16;16.50;;;9.37;;
52590;SDS011;38483;42.620;25.394;2023-02-12T09:01:44;16.77;;;8.80;;
52590;SDS011;38483;42.620;25.394;2023-02-12T09:04:15;15.10;;;8.13;;
52590;SDS011;38483;42.620;25.394;2023-02-12T09:06:45;16.43;;;9.23;;
52590;SDS011;38483;42.620;25.394;2023-02-12T09:09:13;15.67;;;9.27;;
52590;SDS011;38483;42.620;25.394;2023-02-12T09:11:40;16.70;;;9.77;;
52590;SDS011;38483;42.620;25.394;2023-02-12T09:14:10;24.23;;;9.57;;
52590;SDS011;38483;42.620;25.394;2023-02-12T09:16:38;29.10;;;11.03;;
52590;SDS011;38483;42.620;25.394;2023-02-12T09:19:06;16.43;;;8.00;;
52590;SDS011;38483;42.620;25.394;2023-02-12T09:21:34;16.03;;;8.77;;
52590;SDS011;38483;42.620;25.394;2023-02-12T09:24:01;16.30;;;8.57;;
52590;SDS011;38483;42.620;25.394;2023-02-12T09:26:29;16.10;;;9.30;;
52590;SDS011;38483;42.620;25.394;2023-02-12T09:28:56;14.57;;;9.27;;
52590;SDS011;38483;42.620;25.394;2023-02-12T09:31:25;16.40;;;8.47;;
52590;SDS011;38483;42.620;25.394;2023-02-12T09:33:56;16.00;;;8.93;;
52590;SDS011;38483;42.620;25.394;2023-02-12T09:36:25;14.27;;;8.73;;
52590;SDS011;38483;42.620;25.394;2023-02-12T09:38:52;16.07;;;9.50;;
52590;SDS011;38483;42.620;25.394;2023-02-12T09:44:16;15.83;;;8.67;;
52590;SDS011;38483;42.620;25.394;2023-02-12T09:52:47;14.97;;;8.53;;
52590;SDS011;38483;42.620;25.394;2023-02-12T09:55:15;17.83;;;8.87;;
52590;SDS011;38483;42.620;25.394;2023-02-12T09:57:43;15.73;;;9.77;;
52590;SDS011;38483;42.620;25.394;2023-02-12T10:00:17;16.57;;;9.40;;
52590;SDS011;38483;42.620;25.394;2023-02-12T10:02:50;14.87;;;8.30;;
52590;SDS011;38483;42.620;25.394;2023-02-12T10:05:30;13.87;;;7.67;;
52590;SDS011;38483;42.620;25.394;2023-02-12T10:08:06;10.97;;;8.10;;
52590;SDS011;38483;42.620;25.394;2023-02-12T10:10:52;12.73;;;8.73;;
52590;SDS011;38483;42.620;25.394;2023-02-12T10:22:34;12.07;;;8.00;;
52590;SDS011;38483;42.620;25.394;2023-02-12T10:25:25;14.23;;;7.93;;
52590;SDS011;38483;42.620;25.394;2023-02-12T10:28:13;14.50;;;8.67;;
52590;SDS011;38483;42.620;25.394;2023-02-12T10:30:55;15.33;;;8.93;;
52590;SDS011;38483;42.620;25.394;2023-02-12T10:33:36;15.87;;;9.73;;
52590;SDS011;38483;42.620;25.394;2023-02-12T10:44:51;13.43;;;8.57;;
52590;SDS011;38483;42.620;25.394;2023-02-12T10:47:19;14.97;;;8.63;;
52590;SDS011;38483;42.620;25.394;2023-02-12T10:49:50;12.63;;;8.40;;
52590;SDS011;38483;42.620;25.394;2023-02-12T10:55:23;13.30;;;8.37;;
52590;SDS011;38483;42.620;25.394;2023-02-12T10:57:51;14.13;;;8.60;;
52590;SDS011;38483;42.620;25.394;2023-02-12T11:05:40;16.10;;;8.83;;
52590;SDS011;38483;42.620;25.394;2023-02-12T11:10:53;13.57;;;9.13;;
52590;SDS011;38483;42.620;25.394;2023-02-12T11:13:22;16.07;;;9.03;;
52590;SDS011;38483;42.620;25.394;2023-02-12T11:15:52;13.73;;;8.47;;
52590;SDS011;38483;42.620;25.394;2023-02-12T11:18:23;14.60;;;8.23;;
52590;SDS011;38483;42.620;25.394;2023-02-12T11:20:54;16.87;;;8.63;;
52590;SDS011;38483;42.620;25.394;2023-02-12T11:28:56;19.80;;;11.87;;
52590;SDS011;38483;42.620;25.394;2023-02-12T11:31:25;14.07;;;9.07;;
52590;SDS011;38483;42.620;25.394;2023-02-12T11:36:30;16.73;;;10.43;;
52590;SDS011;38483;42.620;25.394;2023-02-12T11:39:01;18.10;;;10.20;;
52590;SDS011;38483;42.620;25.394;2023-02-12T11:41:32;13.50;;;8.77;;
52590;SDS011;38483;42.620;25.394;2023-02-12T11:44:11;13.90;;;8.37;;
52590;SDS011;38483;42.620;25.394;2023-02-12T11:46:46;16.20;;;9.60;;
52590;SDS011;38483;42.620;25.394;2023-02-12T11:49:30;17.70;;;9.87;;
52590;SDS011;38483;42.620;25.394;2023-02-12T11:52:00;15.23;;;9.93;;
52590;SDS011;38483;42.620;25.394;2023-02-12T11:54:32;13.63;;;9.20;;
52590;SDS011;38483;42.620;25.394;2023-02-12T11:57:09;16.87;;;10.07;;
52590;SDS011;38483;42.620;25.394;2023-02-12T12:03:01;16.23;;;10.00;;
52590;SDS011;38483;42.620;25.394;2023-02-12T12:05:56;17.33;;;9.80;;
52590;SDS011;38483;42.620;25.394;2023-02-12T12:24:55;18.30;;;10.13;;
52590;SDS011;38483;42.620;25.394;2023-02-12T12:44:58;21.57;;;11.63;;
52590;SDS011;38483;42.620;25.394;2023-02-12T12:47:47;17.77;;;11.07;;
52590;SDS011;38483;42.620;25.394;2023-02-12T12:56:36;14.40;;;9.63;;
52590;SDS011;38483;42.620;25.394;2023-02-12T13:01:52;18.97;;;11.43;;
52590;SDS011;38483;42.620;25.394;2023-02-12T13:10:16;16.27;;;10.40;;
52590;SDS011;38483;42.620;25.394;2023-02-12T13:13:08;16.13;;;10.57;;
52590;SDS011;38483;42.620;25.394;2023-02-12T13:24:06;17.73;;;9.43;;
52590;SDS011;38483;42.620;25.394;2023-02-12T13:27:07;14.73;;;8.60;;
52590;SDS011;38483;42.620;25.394;2023-02-12T13:29:58;17.37;;;10.10;;
52590;SDS011;38483;42.620;25.394;2023-02-12T13:35:12;15.37;;;9.13;;
52590;SDS011;38483;42.620;25.394;2023-02-12T13:37:43;19.60;;;11.00;;
52590;SDS011;38483;42.620;25.394;2023-02-12T13:40:21;18.13;;;10.27;;
52590;SDS011;38483;42.620;25.394;2023-02-12T13:53:45;16.67;;;11.80;;
52590;SDS011;38483;42.620;25.394;2023-02-12T14:04:54;21.83;;;11.07;;
52590;SDS011;38483;42.620;25.394;2023-02-12T14:07:44;19.53;;;11.13;;
52590;SDS011;38483;42.620;25.394;2023-02-12T14:10:31;17.53;;;11.20;;
52590;SDS011;38483;42.620;25.394;2023-02-12T14:24:51;24.77;;;13.20;;
52590;SDS011;38483;42.620;25.394;2023-02-12T14:27:20;23.63;;;13.13;;
52590;SDS011;38483;42.620;25.394;2023-02-12T14:30:02;19.90;;;12.70;;
52590;SDS011;38483;42.620;25.394;2023-02-12T14:35:36;20.83;;;12.60;;
52590;SDS011;38483;42.620;25.394;2023-02-12T14:40:40;17.53;;;10.93;;
52590;SDS011;38483;42.620;25.394;2023-02-12T14:51:25;17.47;;;10.70;;
52590;SDS011;38483;42.620;25.394;2023-02-12T14:54:17;20.40;;;10.60;;
52590;SDS011;38483;42.620;25.394;2023-02-12T14:56:53;19.43;;;11.27;;
52590;SDS011;38483;42.620;25.394;2023-02-12T14:59:22;22.77;;;13.40;;
52590;SDS011;38483;42.620;25.394;2023-02-12T15:02:01;18.37;;;11.43;;
52590;SDS011;38483;42.620;25.394;2023-02-12T15:04:32;19.17;;;11.80;;
52590;SDS011;38483;42.620;25.394;2023-02-12T15:07:07;21.70;;;12.70;;
52590;SDS011;38483;42.620;25.394;2023-02-12T15:09:57;20.73;;;12.07;;
52590;SDS011;38483;42.620;25.394;2023-02-12T15:12:39;19.43;;;12.57;;
52590;SDS011;38483;42.620;25.394;2023-02-12T15:15:17;22.13;;;13.23;;
52590;SDS011;38483;42.620;25.394;2023-02-12T15:17:53;20.83;;;13.30;;
52590;SDS011;38483;42.620;25.394;2023-02-12T15:20:37;19.53;;;11.93;;
52590;SDS011;38483;42.620;25.394;2023-02-12T15:23:29;20.47;;;13.77;;
52590;SDS011;38483;42.620;25.394;2023-02-12T15:25:58;24.73;;;13.10;;
52590;SDS011;38483;42.620;25.394;2023-02-12T15:28:30;21.27;;;13.70;;
52590;SDS011;38483;42.620;25.394;2023-02-12T15:31:04;21.93;;;13.93;;
52590;SDS011;38483;42.620;25.394;2023-02-12T15:33:38;23.47;;;14.27;;
52590;SDS011;38483;42.620;25.394;2023-02-12T15:36:09;26.30;;;15.37;;
52590;SDS011;38483;42.620;25.394;2023-02-12T15:38:53;24.33;;;14.67;;
52590;SDS011;38483;42.620;25.394;2023-02-12T15:44:18;24.60;;;14.80;;
52590;SDS011;38483;42.620;25.394;2023-02-12T15:46:57;22.67;;;14.37;;
52590;SDS011;38483;42.620;25.394;2023-02-12T15:49:35;20.30;;;13.53;;
52590;SDS011;38483;42.620;25.394;2023-02-12T15:52:07;23.60;;;13.80;;
52590;SDS011;38483;42.620;25.394;2023-02-12T15:54:42;23.63;;;14.33;;
52590;SDS011;38483;42.620;25.394;2023-02-12T15:57:12;24.27;;;15.07;;
52590;SDS011;38483;42.620;25.394;2023-02-12T15:59:52;27.60;;;16.33;;
52590;SDS011;38483;42.620;25.394;2023-02-12T16:02:27;25.80;;;15.20;;
52590;SDS011;38483;42.620;25.394;2023-02-12T16:04:59;25.60;;;15.33;;
52590;SDS011;38483;42.620;25.394;2023-02-12T16:07:29;28.47;;;16.63;;
52590;SDS011;38483;42.620;25.394;2023-02-12T16:10:01;34.70;;;19.70;;
52590;SDS011;38483;42.620;25.394;2023-02-12T16:12:30;26.20;;;16.67;;
52590;SDS011;38483;42.620;25.394;2023-02-12T16:15:03;30.07;;;17.70;;
52590;SDS011;38483;42.620;25.394;2023-02-12T16:17:32;25.07;;;16.40;;
52590;SDS011;38483;42.620;25.394;2023-02-12T16:20:05;24.57;;;15.93;;
52590;SDS011;38483;42.620;25.394;2023-02-12T16:22:48;29.63;;;15.30;;
52590;SDS011;38483;42.620;25.394;2023-02-12T16:25:21;26.53;;;15.90;;
52590;SDS011;38483;42.620;25.394;2023-02-12T16:28:14;28.27;;;16.13;;
52590;SDS011;38483;42.620;25.394;2023-02-12T16:30:48;25.27;;;15.90;;
52590;SDS011;38483;42.620;25.394;2023-02-12T16:33:33;28.83;;;17.80;;
52590;SDS011;38483;42.620;25.394;2023-02-12T16:36:29;30.90;;;18.67;;
52590;SDS011;38483;42.620;25.394;2023-02-12T16:39:00;34.57;;;20.40;;
52590;SDS011;38483;42.620;25.394;2023-02-12T16:41:30;36.53;;;20.93;;
52590;SDS011;38483;42.620;25.394;2023-02-12T16:46:33;35.57;;;20.50;;
52590;SDS011;38483;42.620;25.394;2023-02-12T16:49:14;29.33;;;17.83;;
52590;SDS011;38483;42.620;25.394;2023-02-12T16:51:44;32.00;;;17.90;;
52590;SDS011;38483;42.620;25.394;2023-02-12T16:54:26;34.60;;;19.97;;
52590;SDS011;38483;42.620;25.394;2023-02-12T16:57:00;28.50;;;19.23;;
52590;SDS011;38483;42.620;25.394;2023-02-12T16:59:28;35.80;;;21.67;;
52590;SDS011;38483;42.620;25.394;2023-02-12T17:01:56;28.33;;;16.70;;
52590;SDS011;38483;42.620;25.394;2023-02-12T17:04:25;29.73;;;18.17;;
52590;SDS011;38483;42.620;25.394;2023-02-12T17:06:52;31.17;;;18.00;;
52590;SDS011;38483;42.620;25.394;2023-02-12T17:09:20;29.13;;;16.90;;
52590;SDS011;38483;42.620;25.394;2023-02-12T17:11:47;29.90;;;17.87;;
52590;SDS011;38483;42.620;25.394;2023-02-12T17:14:18;28.47;;;17.67;;
52590;SDS011;38483;42.620;25.394;2023-02-12T17:16:46;27.67;;;16.43;;
52590;SDS011;38483;42.620;25.394;2023-02-12T17:19:14;27.83;;;16.83;;
52590;SDS011;38483;42.620;25.394;2023-02-12T17:21:42;28.50;;;16.10;;
52590;SDS011;38483;42.620;25.394;2023-02-12T17:24:17;32.73;;;17.47;;
52590;SDS011;38483;42.620;25.394;2023-02-12T17:26:47;33.37;;;19.50;;
52590;SDS011;38483;42.620;25.394;2023-02-12T17:29:16;33.87;;;19.17;;
52590;SDS011;38483;42.620;25.394;2023-02-12T17:31:45;30.40;;;17.63;;
52590;SDS011;38483;42.620;25.394;2023-02-12T17:34:14;26.37;;;16.10;;
52590;SDS011;38483;42.620;25.394;2023-02-12T17:36:42;31.50;;;16.53;;
52590;SDS011;38483;42.620;25.394;2023-02-12T17:39:10;25.03;;;15.80;;
52590;SDS011;38483;42.620;25.394;2023-02-12T17:41:41;32.77;;;19.50;;
52590;SDS011;38483;42.620;25.394;2023-02-12T17:44:10;30.40;;;17.43;;
52590;SDS011;38483;42.620;25.394;2023-02-12T17:46:39;32.73;;;17.80;;
52590;SDS011;38483;42.620;25.394;2023-02-12T17:49:06;32.17;;;20.40;;
52590;SDS011;38483;42.620;25.394;2023-02-12T17:51:33;38.67;;;21.07;;
52590;SDS011;38483;42.620;25.394;2023-02-12T17:54:00;33.40;;;21.60;;
52590;SDS011;38483;42.620;25.394;2023-02-12T17:56:27;37.23;;;22.47;;
52590;SDS011;38483;42.620;25.394;2023-02-12T17:58:54;45.00;;;25.07;;
52590;SDS011;38483;42.620;25.394;2023-02-12T18:01:22;38.57;;;23.10;;
52590;SDS011;38483;42.620;25.394;2023-02-12T18:03:50;33.37;;;20.47;;